createdAt,value
2017-09-09T00:01:56.554Z,99397
2017-09-09T00:04:26.266Z,99386
2017-09-09T00:06:55.877Z,99383
2017-09-09T00:09:25.453Z,99379
2017-09-09T00:11:55.037Z,99374
2017-09-09T00:14:24.655Z,99373
2017-09-09T00:16:54.258Z,99372
2017-09-09T00:19:23.881Z,99375
2017-09-09T00:21:53.544Z,99374
2017-09-09T00:24:23.164Z,99374
2017-09-09T00:26:52.763Z,99371
2017-09-09T00:29:25.615Z,99370
2017-09-09T00:31:55.227Z,99367
2017-09-09T00:34:24.849Z,99365
2017-09-09T00:36:54.452Z,99363
2017-09-09T00:39:24.045Z,99365
2017-09-09T00:41:53.709Z,99362
2017-09-09T00:44:26.795Z,99355
2017-09-09T00:46:56.418Z,99355
2017-09-09T00:49:26.014Z,99350
2017-09-09T00:51:55.596Z,99344
2017-09-09T00:54:25.232Z,99345
2017-09-09T00:59:50.269Z,99331
2017-09-09T01:02:19.878Z,99328
2017-09-09T01:10:39.097Z,99328
2017-09-09T01:13:08.684Z,99327
2017-09-09T01:15:38.310Z,99323
2017-09-09T01:18:07.890Z,99327
2017-09-09T01:23:32.682Z,99309
2017-09-09T01:26:02.272Z,99314
2017-09-09T01:28:31.850Z,99318
2017-09-09T01:31:01.509Z,99316
2017-09-09T01:33:31.087Z,99309
2017-09-09T01:36:00.665Z,99305
2017-09-09T01:38:30.288Z,99299
2017-09-09T01:43:55.056Z,99289
2017-09-09T01:46:25.983Z,99297
2017-09-09T01:48:55.623Z,99299
2017-09-09T01:51:25.239Z,99295
2017-09-09T01:56:49.650Z,99286
2017-09-09T01:59:19.225Z,99279
2017-09-09T02:01:49.155Z,99279
2017-09-09T02:04:18.832Z,99278
2017-09-09T02:06:48.436Z,99278
2017-09-09T02:09:18.071Z,99276
2017-09-09T02:11:47.672Z,99270
2017-09-09T02:17:12.790Z,99269
2017-09-09T02:19:42.620Z,99264
2017-09-09T02:22:12.227Z,99257
2017-09-09T02:24:41.880Z,99257
2017-09-09T02:27:11.507Z,99256
2017-09-09T02:32:36.365Z,99251
2017-09-09T02:35:25.577Z,99253
2017-09-09T02:37:55.263Z,99252
2017-09-09T02:40:24.878Z,99252
2017-09-09T02:42:54.553Z,99249
2017-09-09T02:45:24.140Z,99241
2017-09-09T02:47:53.743Z,99247
2017-09-09T02:50:26.297Z,99250
2017-09-09T02:52:55.893Z,99254
2017-09-09T02:55:25.482Z,99235
2017-09-09T02:57:55.093Z,99242
2017-09-09T03:00:24.701Z,99245
2017-09-09T03:05:48.880Z,99248
2017-09-09T03:08:18.496Z,99245
2017-09-09T03:13:42.926Z,99238
2017-09-09T03:16:12.513Z,99235
2017-09-09T03:18:42.129Z,99233
2017-09-09T03:21:11.765Z,99230
2017-09-09T03:23:41.354Z,99226
2017-09-09T03:26:10.933Z,99217
2017-09-09T03:28:40.553Z,99219
2017-09-09T03:31:26.355Z,99212
2017-09-09T03:33:56.014Z,99206
2017-09-09T03:36:25.598Z,99207
2017-09-09T03:38:55.227Z,99198
2017-09-09T03:41:24.805Z,99195
2017-09-09T03:43:54.419Z,99190
2017-09-09T03:46:25.598Z,99184
2017-09-09T03:48:55.209Z,99187
2017-09-09T03:51:25.743Z,99186
2017-09-09T03:53:55.374Z,99184
2017-09-09T03:56:24.978Z,99174
2017-09-09T04:01:49.416Z,99180
2017-09-09T04:04:19.009Z,99181
2017-09-09T04:06:48.595Z,99167
2017-09-09T04:09:18.218Z,99173
2017-09-09T04:11:47.825Z,99166
2017-09-09T04:14:25.383Z,99161
2017-09-09T04:16:55.013Z,99168
2017-09-09T04:19:24.634Z,99168
2017-09-09T04:21:54.305Z,99161
2017-09-09T04:24:23.902Z,99159
2017-09-09T04:26:53.516Z,99167
2017-09-09T04:29:23.151Z,99167
2017-09-09T04:31:52.742Z,99166
2017-09-09T04:34:22.382Z,99165
2017-09-09T04:36:54.425Z,99155
2017-09-09T04:39:24.087Z,99155
2017-09-09T04:44:48.835Z,99162
2017-09-09T04:47:24.945Z,99160
2017-09-09T04:49:54.827Z,99150
2017-09-09T04:52:24.443Z,99151
2017-09-09T04:54:54.130Z,99155
2017-09-09T04:57:23.754Z,99149
2017-09-09T04:59:53.358Z,99157
2017-09-09T05:02:22.987Z,99154
2017-09-09T05:04:52.594Z,99156
2017-09-09T05:07:22.209Z,99156
2017-09-09T05:12:46.825Z,99157
2017-09-09T05:15:16.526Z,99154
2017-09-09T05:17:46.123Z,99152
2017-09-09T05:20:15.744Z,99151
2017-09-09T05:22:45.329Z,99162
2017-09-09T05:25:14.910Z,99158
2017-09-09T05:27:44.536Z,99150
2017-09-09T05:30:26.984Z,99151
2017-09-09T05:41:39.850Z,99162
2017-09-09T05:44:25.721Z,99163
2017-09-09T05:52:44.832Z,99149
2017-09-09T05:55:26.755Z,99150
2017-09-09T05:57:56.376Z,99137
2017-09-09T06:00:25.977Z,99140
2017-09-09T06:14:33.951Z,99133
2017-09-09T06:17:24.422Z,99126
2017-09-09T06:22:48.557Z,99109
2017-09-09T06:25:18.145Z,99107
2017-09-09T06:27:47.734Z,99097
2017-09-09T06:30:17.379Z,99095
2017-09-09T06:32:46.992Z,99090
2017-09-09T06:35:18.227Z,99095
2017-09-09T06:37:47.839Z,99094
2017-09-09T06:40:17.455Z,99097
2017-09-09T06:42:47.079Z,99100
2017-09-09T06:45:17.371Z,99099
2017-09-09T06:50:50.002Z,99096
2017-09-09T06:53:25.586Z,99088
2017-09-09T06:55:55.198Z,99092
2017-09-09T06:58:24.781Z,99094
2017-09-09T07:00:54.419Z,99101
2017-09-09T07:06:19.206Z,99107
2017-09-09T07:08:48.802Z,99101
2017-09-09T07:11:18.429Z,99099
2017-09-09T07:13:48.082Z,99106
2017-09-09T07:16:25.795Z,99106
2017-09-09T07:18:55.431Z,99118
2017-09-09T07:21:25.555Z,99117
2017-09-09T07:23:55.470Z,99107
2017-09-09T07:26:25.051Z,99106
2017-09-09T07:28:54.658Z,99099
2017-09-09T07:31:24.299Z,99100
2017-09-09T07:33:53.884Z,99094
2017-09-09T07:36:26.927Z,99092
2017-09-09T07:38:56.811Z,99101
2017-09-09T07:41:26.467Z,99097
2017-09-09T07:43:56.057Z,99085
2017-09-09T07:46:25.649Z,99087
2017-09-09T07:48:55.297Z,99093
2017-09-09T07:51:24.897Z,99079
2017-09-09T07:53:54.547Z,99068
2017-09-09T08:02:25.147Z,99072
2017-09-09T08:07:49.808Z,99066
2017-09-09T08:10:25.292Z,99065
2017-09-09T08:12:54.933Z,99050
2017-09-09T08:18:25.563Z,99056
2017-09-09T08:23:49.782Z,99051
2017-09-09T08:26:25.933Z,99064
2017-09-09T08:37:35.912Z,99048
2017-09-09T08:40:24.282Z,99054
2017-09-09T08:45:48.518Z,99052
2017-09-09T08:48:25.714Z,99050
2017-09-09T08:53:50.158Z,99061
2017-09-09T08:56:25.419Z,99056
2017-09-09T09:01:49.741Z,99056
2017-09-09T09:04:25.874Z,99056
2017-09-09T09:09:50.188Z,99056
2017-09-09T09:12:25.428Z,99052
2017-09-09T09:17:49.767Z,99037
2017-09-09T09:23:14.564Z,99026
2017-09-09T09:25:44.166Z,99024
2017-09-09T09:28:26.178Z,99020
2017-09-09T09:30:55.783Z,99010
2017-09-09T09:33:25.423Z,99004
2017-09-09T09:35:55.022Z,99008
2017-09-09T09:38:24.612Z,99014
2017-09-09T09:40:54.252Z,99007
2017-09-09T09:43:27.373Z,99005
2017-09-09T09:45:57.639Z,99000
2017-09-09T09:48:27.226Z,99007
2017-09-09T09:50:56.859Z,98994
2017-09-09T09:53:26.701Z,99002
2017-09-09T09:55:56.809Z,98992
2017-09-09T09:58:26.424Z,98989
2017-09-09T10:00:56.013Z,98991
2017-09-09T10:06:20.222Z,98990
2017-09-09T10:08:49.798Z,98985
2017-09-09T10:11:19.445Z,98979
2017-09-09T10:13:49.227Z,98985
2017-09-09T10:16:21.552Z,98980
2017-09-09T10:18:51.203Z,98978
2017-09-09T10:21:20.941Z,98973
2017-09-09T10:24:06.257Z,98970
2017-09-09T10:26:37.285Z,98968
2017-09-09T10:29:06.922Z,98967
2017-09-09T10:31:36.548Z,98963
2017-09-09T10:34:06.157Z,98965
2017-09-09T10:36:35.783Z,98959
2017-09-09T10:39:05.392Z,98951
2017-09-09T10:41:35.039Z,98952
2017-09-09T10:44:04.669Z,98949
2017-09-09T10:46:34.276Z,98952
2017-09-09T10:49:03.898Z,98954
2017-09-09T10:51:33.483Z,98946
2017-09-09T10:54:03.099Z,98945
2017-09-09T10:56:32.845Z,98943
2017-09-09T10:59:25.905Z,98942
2017-09-09T11:01:55.533Z,98951
2017-09-09T11:04:25.183Z,98947
2017-09-09T11:06:54.781Z,98936
2017-09-09T11:09:26.179Z,98934
2017-09-09T11:11:55.775Z,98926
2017-09-09T11:14:25.439Z,98931
2017-09-09T11:16:55.079Z,98928
2017-09-09T11:19:24.759Z,98937
2017-09-09T11:21:54.363Z,98927
2017-09-09T11:24:24.009Z,98926
2017-09-09T11:26:54.214Z,98924
2017-09-09T11:29:23.871Z,98927
2017-09-09T11:31:53.462Z,98922
2017-09-09T11:34:26.525Z,98926
2017-09-09T11:36:56.114Z,98923
2017-09-09T11:39:25.733Z,98924
2017-09-09T11:41:55.396Z,98924
2017-09-09T11:44:24.997Z,98914
2017-09-09T11:46:54.656Z,98912
2017-09-09T11:49:25.777Z,98913
2017-09-09T11:51:55.445Z,98907
2017-09-09T11:54:25.045Z,98912
2017-09-09T11:56:54.703Z,98904
2017-09-09T11:59:24.291Z,98905
2017-09-09T12:01:53.952Z,98904
2017-09-09T12:04:23.550Z,98902
2017-09-09T12:06:53.222Z,98898
2017-09-09T12:09:29.380Z,98906
2017-09-09T12:11:59.048Z,98906
2017-09-09T12:14:28.632Z,98903
2017-09-09T12:19:53.251Z,98890
2017-09-09T12:22:22.852Z,98884
2017-09-09T12:24:52.531Z,98886
2017-09-09T12:27:22.374Z,98880
2017-09-09T12:29:52.013Z,98867
2017-09-09T12:32:21.614Z,98882
2017-09-09T12:34:51.234Z,98884
2017-09-09T12:37:26.472Z,98890
2017-09-09T12:39:56.120Z,98889
2017-09-09T12:42:25.710Z,98879
2017-09-09T12:47:50.121Z,98891
2017-09-09T12:50:19.713Z,98892
2017-09-09T12:52:49.366Z,98890
2017-09-09T12:55:21.783Z,98883
2017-09-09T12:57:51.450Z,98893
2017-09-09T13:00:21.041Z,98890
2017-09-09T13:02:50.702Z,98887
2017-09-09T13:06:56.599Z,98884
2017-09-09T13:09:26.253Z,98879
2017-09-09T13:11:55.839Z,98880
2017-09-09T13:14:26.316Z,98884
2017-09-09T13:16:55.917Z,98883
2017-09-09T13:22:20.100Z,98890
2017-09-09T13:24:49.727Z,98873
2017-09-09T13:27:19.416Z,98880
2017-09-09T13:29:49.014Z,98875
2017-09-09T13:32:18.683Z,98863
2017-09-09T13:34:48.531Z,98867
2017-09-09T13:37:18.174Z,98869
2017-09-09T13:39:47.810Z,98870
2017-09-09T13:45:12.260Z,98865
2017-09-09T13:50:36.645Z,98870
2017-09-09T13:53:06.238Z,98872
2017-09-09T14:01:25.469Z,98872
2017-09-09T14:06:49.983Z,98880
2017-09-09T14:32:37.741Z,98881
2017-09-09T14:46:47.098Z,98890
2017-09-09T14:55:06.351Z,98878
2017-09-09T14:57:35.950Z,98881
2017-09-09T15:00:05.622Z,98888
2017-09-09T15:02:35.210Z,98888
2017-09-09T15:05:04.857Z,98891
2017-09-09T15:07:34.474Z,98891
2017-09-09T15:10:04.119Z,98892
2017-09-09T15:12:33.719Z,98892
2017-09-09T15:15:03.396Z,98886
2017-09-09T15:20:28.109Z,98884
2017-09-09T15:28:47.149Z,98883
2017-09-09T15:31:16.746Z,98878
2017-09-09T15:36:40.982Z,98877
2017-09-09T15:42:24.807Z,98883
2017-09-09T15:56:32.936Z,98896
2017-09-09T16:04:51.963Z,98898
2017-09-09T16:24:50.480Z,98893
2017-09-09T16:27:20.061Z,98899
2017-09-09T16:29:49.736Z,98895
2017-09-09T16:38:27.422Z,98895
2017-09-09T16:40:57.103Z,98891
2017-09-09T16:43:26.787Z,98883
2017-09-09T16:54:40.905Z,98890
2017-09-09T16:57:12.295Z,98893
2017-09-09T17:08:26.866Z,98896
2017-09-09T17:13:51.485Z,98909
2017-09-09T17:22:27.177Z,98904
2017-09-09T17:24:56.767Z,98904
2017-09-09T18:05:27.473Z,98933
2017-09-09T18:07:57.085Z,98931
2017-09-09T18:16:26.965Z,98929
2017-09-09T18:18:56.593Z,98928
2017-09-09T18:21:26.211Z,98932
2017-09-09T18:32:40.835Z,98951
2017-09-09T18:35:10.441Z,98965
2017-09-09T18:40:35.320Z,98954
2017-09-09T18:43:06.360Z,98950
2017-09-09T18:57:15.667Z,98961
2017-09-09T18:59:45.299Z,98963
2017-09-09T19:02:14.959Z,98957
2017-09-09T19:04:44.666Z,98958
2017-09-09T19:07:15.040Z,98958
2017-09-09T19:12:40.404Z,98953
2017-09-09T19:15:10.047Z,98955
2017-09-09T19:17:39.892Z,98951
2017-09-09T19:37:50.241Z,98950
2017-09-09T19:43:27.572Z,98949
2017-09-09T19:45:57.171Z,98953
2017-09-09T19:49:30.275Z,98946
2017-09-09T20:06:33.479Z,98938
2017-09-09T20:09:26.699Z,98933
2017-09-09T20:26:30.233Z,98953
2017-09-09T20:29:20.196Z,98948
2017-09-09T20:31:49.911Z,98942
2017-09-09T20:46:06.926Z,98964
2017-09-09T21:41:57.940Z,99016
2017-09-09T21:44:27.538Z,99011
2017-09-09T22:18:23.955Z,99077
2017-09-09T22:21:32.547Z,99077
2017-09-09T22:44:27.465Z,99090
2017-09-09T22:46:57.066Z,99087
2017-09-09T22:52:21.506Z,99075
2017-09-09T23:06:29.521Z,99062
2017-09-09T23:08:59.520Z,99058
2017-09-09T23:11:29.134Z,99065
2017-09-09T23:13:58.770Z,99064
2017-09-09T23:16:28.382Z,99069
2017-09-09T23:21:52.902Z,99072
2017-09-09T23:24:22.518Z,99078
2017-09-09T23:26:52.195Z,99070
2017-09-09T23:29:21.801Z,99071
2017-09-09T23:52:16.158Z,99103
2017-09-09T23:54:45.748Z,99105
2017-09-09T23:57:15.419Z,99100
